Etchingham, United Kingdom
Current Conditions -  °F | °C
As of 6:50 PM on Friday 28 Nov 2014 (Local Time) from EGMD Reporting Station
Few Clouds Few Clouds  
Wind Chill: 14°   Ceiling: Unl
Heat Index: 14°   Visibility: 6mi
Dew Point: 12°   Wind: 13mph
Humidity: 88%   Direction: 90°E
Pressure: 29.68"   Gusts: NA
Location:  51.01°N, 0.44°E
Report Text: EGMD 281850Z 09011KT 9999 FEW010 14/12 Q1005
Loading
Personal Weather Stations






























Interactive Weather Map New forecast layout! Learn more

10-Day Weather Forecast

Advertisements
Track Severe Weather on mobile